createdAt,value
2023-02-06T00:02:05.110Z,14.97
2023-02-06T00:07:06.733Z,12.63
2023-02-06T00:12:08.364Z,13.20
2023-02-06T00:17:09.957Z,12.13
2023-02-06T00:22:13.553Z,11.80
2023-02-06T00:27:15.147Z,11.50
2023-02-06T00:32:16.849Z,12.50
2023-02-06T00:37:18.529Z,12.43
2023-02-06T00:42:20.191Z,12.77
2023-02-06T00:47:21.827Z,12.40
2023-02-06T00:52:23.477Z,12.00
2023-02-06T00:57:25.126Z,12.57
2023-02-06T01:02:26.867Z,13.10
2023-02-06T01:07:28.599Z,11.13
2023-02-06T01:12:30.217Z,11.77
2023-02-06T01:17:33.302Z,11.57
2023-02-06T01:22:36.493Z,11.97
2023-02-06T01:27:38.590Z,11.53
2023-02-06T01:32:41.661Z,10.50
2023-02-06T01:37:43.324Z,11.10
2023-02-06T01:42:45.135Z,10.90
2023-02-06T01:47:48.840Z,11.73
2023-02-06T01:52:51.169Z,10.05
2023-02-06T01:57:52.900Z,11.10
2023-02-06T02:02:55.566Z,11.77
2023-02-06T02:08:02.964Z,12.10
2023-02-06T02:13:04.592Z,12.13
2023-02-06T02:18:30.603Z,10.83
2023-02-06T02:23:45.616Z,10.27
2023-02-06T02:29:09.121Z,10.30
2023-02-06T02:34:31.269Z,10.87
2023-02-06T02:39:44.569Z,9.40
2023-02-06T02:44:56.232Z,10.10
2023-02-06T02:50:00.925Z,9.53
2023-02-06T02:55:18.080Z,10.47
2023-02-06T03:00:23.031Z,9.80
2023-02-06T03:05:26.458Z,9.83
2023-02-06T03:10:53.220Z,10.70
2023-02-06T03:16:08.027Z,11.13
2023-02-06T03:21:15.313Z,11.60
2023-02-06T03:26:22.613Z,9.37
2023-02-06T03:31:31.068Z,10.47
2023-02-06T03:36:32.959Z,9.60
2023-02-06T03:41:37.231Z,9.47
2023-02-06T03:46:41.910Z,10.67
2023-02-06T03:51:47.850Z,11.43
2023-02-06T03:56:56.604Z,12.00
2023-02-06T04:02:02.624Z,11.37
2023-02-06T04:07:18.948Z,10.73
2023-02-06T04:12:21.892Z,10.80
2023-02-06T04:17:40.741Z,11.27
2023-02-06T04:22:45.424Z,10.27
2023-02-06T04:27:47.134Z,11.03
2023-02-06T04:32:48.727Z,12.23
2023-02-06T04:37:50.338Z,11.77
2023-02-06T04:42:51.930Z,12.40
2023-02-06T04:47:53.524Z,12.40
2023-02-06T04:52:55.135Z,11.87
2023-02-06T04:57:56.725Z,12.53
2023-02-06T05:02:58.373Z,12.13
2023-02-06T05:07:59.971Z,12.87
2023-02-06T05:13:01.568Z,11.43
2023-02-06T05:18:03.431Z,12.73
2023-02-06T05:23:05.094Z,11.43
2023-02-06T05:28:07.480Z,10.47
2023-02-06T05:33:09.302Z,12.13
2023-02-06T05:38:11.707Z,12.82
2023-02-06T05:43:13.386Z,14.30
2023-02-06T05:48:15.116Z,15.50
2023-02-06T05:53:17.734Z,15.27
2023-02-06T05:58:19.722Z,14.27
2023-02-06T06:03:21.382Z,15.27
2023-02-06T06:08:23.105Z,14.50
2023-02-06T06:13:24.755Z,15.93
2023-02-06T06:18:26.749Z,14.53
2023-02-06T06:23:28.332Z,14.87
2023-02-06T06:28:30.096Z,14.93
2023-02-06T06:33:31.855Z,14.77
2023-02-06T06:38:33.484Z,13.97
2023-02-06T06:43:35.347Z,14.32
2023-02-06T06:48:38.368Z,14.90
2023-02-06T06:53:40.338Z,14.48
2023-02-06T06:58:42.526Z,14.77
2023-02-06T07:03:44.368Z,14.93
2023-02-06T07:08:46.032Z,16.45
2023-02-06T07:13:47.628Z,16.57
2023-02-06T07:18:49.218Z,15.43
2023-02-06T07:23:50.829Z,16.67
2023-02-06T07:28:52.788Z,16.50
2023-02-06T07:33:54.413Z,15.57
2023-02-06T07:38:56.019Z,17.23
2023-02-06T07:43:57.602Z,15.50
2023-02-06T07:48:59.297Z,16.23
2023-02-06T07:54:00.948Z,15.13
2023-02-06T07:59:03.097Z,17.17
2023-02-06T08:04:04.943Z,18.97
2023-02-06T08:09:06.567Z,18.93
2023-02-06T08:14:08.246Z,18.70
2023-02-06T08:19:11.026Z,19.95
2023-02-06T08:24:13.286Z,18.40
2023-02-06T08:29:14.894Z,19.67
2023-02-06T08:34:16.623Z,20.92
2023-02-06T08:39:19.258Z,20.10
2023-02-06T08:44:21.362Z,21.27
2023-02-06T08:49:26.912Z,22.77
2023-02-06T08:54:28.557Z,21.30
2023-02-06T08:59:31.030Z,23.23
2023-02-06T09:04:34.624Z,24.80
2023-02-06T09:09:36.312Z,25.30
2023-02-06T09:14:38.507Z,26.33
2023-02-06T09:19:40.196Z,29.30
2023-02-06T09:24:41.866Z,30.10
2023-02-06T09:29:43.495Z,28.10
2023-02-06T09:34:45.146Z,27.45
2023-02-06T09:39:46.914Z,26.65
2023-02-06T09:45:03.032Z,30.93
2023-02-06T09:50:25.494Z,28.13
2023-02-06T09:55:40.618Z,26.93
2023-02-06T10:00:51.529Z,25.02
2023-02-06T10:06:19.329Z,21.87
2023-02-06T10:11:34.793Z,19.53
2023-02-06T10:16:51.765Z,18.23
2023-02-06T10:22:01.969Z,17.57
2023-02-06T10:27:06.318Z,19.30
2023-02-06T10:32:36.625Z,17.83
2023-02-06T10:38:08.288Z,18.75
2023-02-06T10:43:20.161Z,20.27
2023-02-06T10:48:28.710Z,25.58
2023-02-06T10:53:37.386Z,25.35
2023-02-06T10:58:57.626Z,26.33
2023-02-06T11:04:05.293Z,25.63
2023-02-06T11:09:06.979Z,26.53
2023-02-06T11:14:24.862Z,25.40
2023-02-06T11:19:38.433Z,25.92
2023-02-06T11:24:59.570Z,21.08
2023-02-06T11:30:21.335Z,19.60
2023-02-06T11:35:31.828Z,19.37
2023-02-06T11:40:33.582Z,20.90
2023-02-06T11:45:35.532Z,20.97
2023-02-06T11:50:38.232Z,21.27
2023-02-06T11:55:40.661Z,21.27
2023-02-06T12:01:04.882Z,20.57
2023-02-06T12:06:17.928Z,21.17
2023-02-06T12:11:36.163Z,17.43
2023-02-06T12:16:41.474Z,20.92
2023-02-06T12:22:02.518Z,20.23
2023-02-06T12:27:16.874Z,20.52
2023-02-06T12:32:28.470Z,18.17
2023-02-06T12:37:43.405Z,18.80
2023-02-06T12:42:57.382Z,18.20
2023-02-06T12:48:23.424Z,17.38
2023-02-06T12:53:35.376Z,17.40
2023-02-06T12:58:48.220Z,15.23
2023-02-06T13:03:55.245Z,14.07
2023-02-06T13:08:58.830Z,13.85
2023-02-06T13:14:23.811Z,14.70
2023-02-06T13:19:49.450Z,14.37
2023-02-06T13:24:51.461Z,15.32
2023-02-06T13:29:54.032Z,15.27
2023-02-06T13:35:05.546Z,14.57
2023-02-06T13:40:22.510Z,15.07
2023-02-06T13:45:33.251Z,16.63
2023-02-06T13:51:00.428Z,17.08
2023-02-06T13:56:19.955Z,15.13
2023-02-06T14:01:28.295Z,12.60
2023-02-06T14:06:43.443Z,13.17
2023-02-06T14:12:23.985Z,12.98
2023-02-06T14:17:46.434Z,12.65
2023-02-06T14:23:13.148Z,14.10
2023-02-06T14:28:40.522Z,12.73
2023-02-06T14:33:51.086Z,13.43
2023-02-06T14:39:08.306Z,13.00
2023-02-06T14:44:13.584Z,12.10
2023-02-06T14:49:33.591Z,12.47
2023-02-06T14:54:38.452Z,7.97
2023-02-06T14:59:50.217Z,8.57
2023-02-06T15:04:51.923Z,7.73
2023-02-06T15:09:59.788Z,8.57
2023-02-06T15:15:19.735Z,11.13
2023-02-06T15:20:21.373Z,9.93
2023-02-06T15:25:39.157Z,10.00
2023-02-06T15:30:41.085Z,10.03
2023-02-06T15:35:49.599Z,13.93
2023-02-06T15:41:04.368Z,12.57
2023-02-06T15:46:06.797Z,13.65
2023-02-06T15:51:08.365Z,12.93
2023-02-06T15:56:24.831Z,12.77
2023-02-06T16:01:30.450Z,13.18
2023-02-06T16:06:32.167Z,13.90
2023-02-06T16:11:51.109Z,15.73
2023-02-06T16:17:20.366Z,20.47
2023-02-06T16:22:33.926Z,21.00
2023-02-06T16:27:35.539Z,17.43
2023-02-06T16:32:37.184Z,21.20
2023-02-06T16:37:39.295Z,18.23
2023-02-06T16:42:41.575Z,21.17
2023-02-06T16:47:43.211Z,19.87
2023-02-06T16:52:53.355Z,19.87
2023-02-06T16:57:58.874Z,18.88
2023-02-06T17:03:00.512Z,18.92
2023-02-06T17:08:02.324Z,20.48
2023-02-06T17:13:03.957Z,21.27
2023-02-06T17:18:05.600Z,19.65
2023-02-06T17:23:07.557Z,21.33
2023-02-06T17:28:13.128Z,24.30
2023-02-06T17:33:14.830Z,23.37
2023-02-06T17:38:16.462Z,22.27
2023-02-06T17:43:18.256Z,23.63
2023-02-06T17:48:19.869Z,22.30
2023-02-06T17:53:21.562Z,23.40
2023-02-06T17:58:23.315Z,25.57
2023-02-06T18:03:25.296Z,23.67
2023-02-06T18:08:28.271Z,25.80
2023-02-06T18:13:29.914Z,26.03
2023-02-06T18:18:32.394Z,26.17
2023-02-06T18:23:34.474Z,23.90
2023-02-06T18:28:37.290Z,25.40
2023-02-06T18:33:38.915Z,27.03
2023-02-06T18:38:40.614Z,28.27
2023-02-06T18:43:42.220Z,28.60
2023-02-06T18:48:43.821Z,27.17
2023-02-06T18:53:45.444Z,26.63
2023-02-06T18:58:47.258Z,29.23
2023-02-06T19:03:49.919Z,30.33
2023-02-06T19:08:51.651Z,29.60
2023-02-06T19:13:53.315Z,30.93
2023-02-06T19:18:54.917Z,31.93
2023-02-06T19:23:59.640Z,31.10
2023-02-06T19:29:01.293Z,31.40
2023-02-06T19:34:02.992Z,34.73
2023-02-06T19:39:07.625Z,35.80
2023-02-06T19:44:12.617Z,34.03
2023-02-06T19:49:14.260Z,33.10
2023-02-06T19:54:16.059Z,36.47
2023-02-06T19:59:22.545Z,40.07
2023-02-06T20:04:26.950Z,40.87
2023-02-06T20:09:29.397Z,33.37
2023-02-06T20:14:31.613Z,33.80
2023-02-06T20:19:33.559Z,31.53
2023-02-06T20:24:35.175Z,32.67
2023-02-06T20:29:39.589Z,33.17
2023-02-06T20:34:41.264Z,33.03
2023-02-06T20:39:42.924Z,30.40
2023-02-06T20:44:44.616Z,31.70
2023-02-06T20:49:46.434Z,33.73
2023-02-06T20:54:48.078Z,30.77
2023-02-06T20:59:49.745Z,29.87
2023-02-06T21:04:52.395Z,31.93
2023-02-06T21:09:54.003Z,29.83
2023-02-06T21:14:55.772Z,36.97
2023-02-06T21:19:57.390Z,29.00
2023-02-06T21:24:59.928Z,33.73
2023-02-06T21:30:01.607Z,26.23
2023-02-06T21:35:03.813Z,26.07
2023-02-06T21:40:06.581Z,36.03
2023-02-06T21:45:08.840Z,28.23
2023-02-06T21:50:10.462Z,22.63
2023-02-06T21:55:12.389Z,21.97
2023-02-06T22:00:14.488Z,24.67
2023-02-06T22:05:16.877Z,23.80
2023-02-06T22:10:18.644Z,24.63
2023-02-06T22:15:20.267Z,22.60
2023-02-06T22:20:22.068Z,23.97
2023-02-06T22:25:23.776Z,22.30
2023-02-06T22:30:25.408Z,22.53
2023-02-06T22:35:27.044Z,22.93
2023-02-06T22:40:28.632Z,25.33
2023-02-06T22:45:30.326Z,25.50
2023-02-06T22:50:31.915Z,26.07
2023-02-06T22:56:14.162Z,21.27
2023-02-06T23:01:17.565Z,23.97
2023-02-06T23:06:20.053Z,29.27
2023-02-06T23:11:21.836Z,26.20
2023-02-06T23:16:24.494Z,27.40
2023-02-06T23:21:28.010Z,28.07
2023-02-06T23:26:30.227Z,26.97
2023-02-06T23:31:31.954Z,24.57
2023-02-06T23:36:33.988Z,21.03
2023-02-06T23:41:35.608Z,25.03
2023-02-06T23:46:39.201Z,27.40
2023-02-06T23:51:40.842Z,28.30
2023-02-06T23:56:42.522Z,28.17
